createdAt,value
2018-09-23T00:01:44.186Z,15.40
2018-09-23T00:04:12.435Z,15.30
2018-09-23T00:06:40.867Z,15.40
2018-09-23T00:09:09.475Z,15.30
2018-09-23T00:11:37.948Z,15.40
2018-09-23T00:14:06.235Z,15.40
2018-09-23T00:16:34.819Z,15.40
2018-09-23T00:19:03.322Z,15.40
2018-09-23T00:21:31.928Z,15.50
2018-09-23T00:24:00.791Z,15.40
2018-09-23T00:26:29.291Z,15.50
2018-09-23T00:28:57.533Z,15.50
2018-09-23T00:31:26.021Z,15.60
2018-09-23T00:33:54.260Z,15.50
2018-09-23T00:36:23.061Z,15.60
2018-09-23T00:38:52.314Z,15.60
2018-09-23T00:41:20.890Z,15.70
2018-09-23T00:43:49.482Z,15.70
2018-09-23T00:46:17.722Z,15.60
2018-09-23T00:48:46.276Z,15.70
2018-09-23T00:51:15.908Z,15.80
2018-09-23T00:53:44.508Z,15.80
2018-09-23T00:56:13.028Z,15.80
2018-09-23T00:58:41.230Z,16.00
2018-09-23T01:01:10.120Z,15.80
2018-09-23T01:03:38.349Z,16.00
2018-09-23T01:06:07.320Z,15.90
2018-09-23T01:08:36.275Z,15.90
2018-09-23T01:11:04.899Z,15.90
2018-09-23T01:13:33.111Z,16.10
2018-09-23T01:16:01.364Z,16.10
2018-09-23T01:18:29.612Z,16.00
2018-09-23T01:20:58.176Z,16.00
2018-09-23T01:23:26.941Z,16.00
2018-09-23T01:25:55.676Z,16.00
2018-09-23T01:28:24.839Z,16.00
2018-09-23T01:30:53.898Z,16.00
2018-09-23T01:33:22.380Z,16.00
2018-09-23T01:35:50.629Z,15.90
2018-09-23T01:38:18.879Z,16.00
2018-09-23T01:40:47.539Z,16.00
2018-09-23T01:43:15.830Z,16.00
2018-09-23T01:45:44.851Z,16.00
2018-09-23T01:48:13.116Z,16.10
2018-09-23T01:50:41.358Z,16.10
2018-09-23T01:53:10.108Z,16.10
2018-09-23T01:55:39.507Z,16.20
2018-09-23T01:58:08.076Z,16.20
2018-09-23T02:00:36.970Z,16.20
2018-09-23T02:03:05.217Z,16.10
2018-09-23T02:05:33.739Z,16.00
2018-09-23T02:08:02.710Z,16.00
2018-09-23T02:10:30.971Z,16.00
2018-09-23T02:12:59.460Z,15.90
2018-09-23T02:15:27.968Z,15.80
2018-09-23T02:17:56.810Z,15.90
2018-09-23T02:20:25.695Z,15.90
2018-09-23T02:22:54.767Z,15.80
2018-09-23T02:25:23.783Z,15.90
2018-09-23T02:27:52.071Z,16.00
2018-09-23T02:30:20.322Z,16.00
2018-09-23T02:32:48.895Z,16.00
2018-09-23T02:35:17.130Z,16.00
2018-09-23T02:37:45.764Z,15.90
2018-09-23T02:40:14.480Z,16.00
2018-09-23T02:42:43.101Z,16.00
2018-09-23T02:45:12.039Z,16.00
2018-09-23T02:47:40.638Z,16.10
2018-09-23T02:50:09.259Z,15.90
2018-09-23T02:52:37.929Z,15.90
2018-09-23T02:55:06.223Z,15.90
2018-09-23T02:57:34.870Z,15.90
2018-09-23T03:00:03.198Z,15.90
2018-09-23T03:02:31.672Z,15.90
2018-09-23T03:05:00.272Z,15.90
2018-09-23T03:07:28.766Z,16.00
2018-09-23T03:09:57.362Z,16.00
2018-09-23T03:12:25.669Z,16.10
2018-09-23T03:14:54.295Z,16.00
2018-09-23T03:17:22.549Z,16.10
2018-09-23T03:19:51.070Z,16.10
2018-09-23T03:22:19.852Z,16.10
2018-09-23T03:31:46.875Z,16.20
2018-09-23T03:34:15.129Z,16.40
2018-09-23T03:36:43.664Z,16.40
2018-09-23T03:39:11.925Z,16.50
2018-09-23T03:41:40.175Z,16.40
2018-09-23T03:44:08.664Z,16.60
2018-09-23T03:46:36.939Z,16.60
2018-09-23T03:49:05.476Z,16.60
2018-09-23T03:51:34.097Z,16.70
2018-09-23T03:54:02.407Z,16.80
2018-09-23T03:56:30.956Z,16.80
2018-09-23T03:58:59.245Z,16.90
2018-09-23T04:01:27.483Z,17.00
2018-09-23T04:03:55.783Z,17.10
2018-09-23T04:06:24.059Z,17.10
2018-09-23T04:08:52.384Z,17.20
2018-09-23T04:11:21.835Z,17.30
2018-09-23T04:13:50.113Z,17.40
2018-09-23T04:16:18.709Z,17.40
2018-09-23T04:18:47.004Z,17.40
2018-09-23T04:21:15.702Z,17.40
2018-09-23T04:23:44.499Z,17.50
2018-09-23T04:26:13.256Z,17.50
2018-09-23T04:28:42.147Z,17.60
2018-09-23T04:31:10.444Z,17.60
2018-09-23T04:33:38.731Z,17.60
2018-09-23T04:36:07.226Z,17.60
2018-09-23T04:38:36.145Z,17.60
2018-09-23T04:41:04.806Z,17.60
2018-09-23T04:43:33.056Z,17.70
2018-09-23T04:46:01.691Z,17.70
2018-09-23T04:48:29.966Z,17.70
2018-09-23T04:50:58.343Z,17.70
2018-09-23T04:53:27.232Z,17.80
2018-09-23T04:55:56.254Z,17.80
2018-09-23T04:58:24.730Z,17.80
2018-09-23T05:00:53.037Z,17.80
2018-09-23T05:03:21.322Z,17.80
2018-09-23T05:05:49.638Z,17.80
2018-09-23T05:08:18.119Z,17.80
2018-09-23T05:10:46.559Z,17.80
2018-09-23T05:13:15.501Z,17.80
2018-09-23T05:15:43.812Z,17.90
2018-09-23T05:18:12.720Z,17.90
2018-09-23T05:20:41.682Z,17.90
2018-09-23T05:23:10.170Z,17.90
2018-09-23T05:25:38.453Z,17.90
2018-09-23T05:28:07.035Z,18.00
2018-09-23T05:30:36.075Z,18.00
2018-09-23T05:33:04.627Z,18.00
2018-09-23T05:35:32.845Z,18.00
2018-09-23T05:38:01.484Z,18.10
2018-09-23T05:40:30.522Z,18.10
2018-09-23T05:42:59.077Z,18.10
2018-09-23T05:45:27.282Z,18.10
2018-09-23T05:47:55.563Z,18.10
2018-09-23T05:50:23.892Z,18.10
2018-09-23T05:52:52.479Z,18.20
2018-09-23T05:55:21.192Z,18.20
2018-09-23T05:57:49.690Z,18.20
2018-09-23T06:00:18.633Z,18.30
2018-09-23T06:02:47.532Z,18.30
2018-09-23T06:05:16.059Z,18.30
2018-09-23T06:07:45.188Z,18.30
2018-09-23T06:10:13.396Z,18.30
2018-09-23T06:12:41.897Z,18.30
2018-09-23T06:15:10.187Z,18.40
2018-09-23T06:17:39.200Z,18.30
2018-09-23T06:20:07.827Z,18.30
2018-09-23T06:22:36.716Z,18.40
2018-09-23T06:25:04.955Z,18.40
2018-09-23T06:27:33.183Z,18.40
2018-09-23T06:30:01.426Z,18.40
2018-09-23T06:32:29.946Z,18.50
2018-09-23T06:34:58.215Z,18.50
2018-09-23T06:37:26.481Z,18.50
2018-09-23T06:39:55.083Z,18.40
2018-09-23T06:42:23.935Z,18.40
2018-09-23T06:44:52.509Z,18.40
2018-09-23T06:47:20.800Z,18.50
2018-09-23T06:49:49.460Z,18.50
2018-09-23T06:52:18.072Z,18.50
2018-09-23T06:54:47.028Z,18.50
2018-09-23T06:57:15.637Z,18.60
2018-09-23T06:59:44.630Z,18.60
2018-09-23T07:02:13.248Z,18.70
2018-09-23T07:04:41.879Z,18.70
2018-09-23T07:07:10.373Z,18.70
2018-09-23T07:09:39.448Z,18.70
2018-09-23T07:12:07.781Z,18.70
2018-09-23T07:14:36.076Z,18.80
2018-09-23T07:17:04.915Z,18.80
2018-09-23T07:19:33.519Z,18.90
2018-09-23T07:22:02.116Z,18.90
2018-09-23T07:24:30.425Z,19.00
2018-09-23T07:26:59.599Z,19.00
2018-09-23T07:29:28.690Z,19.10
2018-09-23T07:31:57.439Z,19.10
2018-09-23T07:34:25.949Z,19.10
2018-09-23T07:36:54.758Z,19.10
2018-09-23T07:39:23.728Z,19.10
2018-09-23T07:41:52.055Z,19.10
2018-09-23T07:44:20.685Z,19.10
2018-09-23T07:46:49.243Z,19.20
2018-09-23T07:49:18.164Z,19.30
2018-09-23T07:51:46.465Z,19.20
2018-09-23T07:54:14.741Z,19.20
2018-09-23T07:56:43.593Z,19.30
2018-09-23T07:59:12.563Z,19.30
2018-09-23T08:01:40.845Z,19.30
2018-09-23T08:04:09.573Z,19.40
2018-09-23T08:06:37.894Z,19.50
2018-09-23T08:09:07.128Z,19.60
2018-09-23T08:11:35.694Z,19.70
2018-09-23T08:14:05.019Z,19.80
2018-09-23T08:16:33.342Z,19.90
2018-09-23T08:19:02.057Z,20.00
2018-09-23T08:21:30.963Z,20.10
2018-09-23T08:23:59.269Z,20.10
2018-09-23T08:26:27.686Z,20.20
2018-09-23T08:28:55.972Z,20.20
2018-09-23T08:31:24.622Z,20.20
2018-09-23T08:33:53.567Z,20.30
2018-09-23T08:36:21.901Z,20.30
2018-09-23T08:38:50.985Z,20.30
2018-09-23T08:41:19.698Z,20.30
2018-09-23T08:43:48.701Z,20.40
2018-09-23T08:46:17.048Z,20.50
2018-09-23T08:48:45.314Z,20.50
2018-09-23T08:51:13.911Z,20.50
2018-09-23T08:53:42.148Z,20.70
2018-09-23T08:56:10.409Z,20.70
2018-09-23T08:58:38.982Z,20.80
2018-09-23T09:01:07.259Z,20.70
2018-09-23T09:03:36.008Z,20.70
2018-09-23T09:06:04.235Z,20.70
2018-09-23T09:08:32.922Z,20.60
2018-09-23T09:11:01.208Z,20.60
2018-09-23T09:13:29.512Z,20.60
2018-09-23T09:15:58.368Z,20.60
2018-09-23T09:18:26.715Z,20.70
2018-09-23T09:20:54.966Z,20.70
2018-09-23T09:23:23.634Z,20.70
2018-09-23T09:25:52.000Z,20.70
2018-09-23T09:28:20.239Z,20.80
2018-09-23T09:30:49.251Z,20.80
2018-09-23T09:33:18.003Z,20.80
2018-09-23T09:35:46.292Z,20.90
2018-09-23T09:38:14.834Z,20.90
2018-09-23T09:40:43.355Z,21.00
2018-09-23T09:43:12.105Z,21.10
2018-09-23T09:45:40.591Z,21.10
2018-09-23T09:48:09.409Z,21.10
2018-09-23T09:50:37.703Z,21.20
2018-09-23T09:53:06.371Z,21.20
2018-09-23T09:55:34.950Z,21.30
2018-09-23T09:58:03.214Z,21.30
2018-09-23T10:00:35.852Z,21.30
2018-09-23T10:03:05.742Z,21.40
2018-09-23T10:05:34.064Z,21.40
2018-09-23T10:08:02.650Z,21.50
2018-09-23T10:10:30.893Z,21.60
2018-09-23T10:12:59.205Z,21.60
2018-09-23T10:15:27.472Z,21.60
2018-09-23T10:17:55.727Z,21.60
2018-09-23T10:20:24.325Z,21.60
2018-09-23T10:22:52.888Z,21.60
2018-09-23T10:25:21.220Z,21.60
2018-09-23T10:27:49.940Z,21.60
2018-09-23T10:30:18.334Z,21.60
2018-09-23T10:32:46.935Z,21.60
2018-09-23T10:35:15.590Z,21.60
2018-09-23T10:37:44.613Z,21.60
2018-09-23T10:40:12.891Z,21.60
2018-09-23T10:42:41.722Z,21.60
2018-09-23T10:45:10.008Z,21.60
2018-09-23T10:47:38.926Z,21.60
2018-09-23T10:50:07.196Z,21.60
2018-09-23T10:52:35.677Z,21.60
2018-09-23T10:55:03.991Z,21.70
2018-09-23T10:57:32.384Z,21.70
2018-09-23T11:00:00.947Z,21.80
2018-09-23T11:02:29.427Z,21.80
2018-09-23T11:04:58.037Z,21.80
2018-09-23T11:07:26.417Z,21.80
2018-09-23T11:09:55.006Z,21.90
2018-09-23T11:12:23.614Z,22.00
2018-09-23T11:14:52.450Z,22.10
2018-09-23T11:17:20.743Z,22.20
2018-09-23T11:19:49.331Z,22.30
2018-09-23T11:22:17.978Z,22.40
2018-09-23T11:24:46.322Z,22.60
2018-09-23T11:27:14.761Z,22.70
2018-09-23T11:29:43.074Z,22.80
2018-09-23T11:32:11.355Z,22.90
2018-09-23T11:34:39.939Z,23.10
2018-09-23T11:37:08.730Z,23.30
2018-09-23T11:39:37.217Z,23.30
2018-09-23T11:42:06.294Z,23.30
2018-09-23T11:44:34.897Z,23.50
2018-09-23T11:47:03.214Z,23.80
2018-09-23T11:49:31.758Z,24.20
2018-09-23T11:51:59.981Z,24.40
2018-09-23T11:54:28.309Z,24.50
2018-09-23T11:56:56.591Z,24.60
2018-09-23T11:59:25.082Z,24.70
2018-09-23T12:01:54.978Z,24.70
2018-09-23T12:04:23.260Z,24.70
2018-09-23T12:06:51.518Z,24.70
2018-09-23T12:09:20.076Z,24.70
2018-09-23T12:11:48.959Z,24.70
2018-09-23T12:14:17.220Z,24.90
2018-09-23T12:16:45.802Z,24.80
2018-09-23T12:19:14.119Z,24.80
2018-09-23T12:21:43.036Z,24.90
2018-09-23T12:24:11.580Z,24.80
2018-09-23T12:26:40.778Z,24.70
2018-09-23T12:29:09.022Z,24.70
2018-09-23T12:31:37.263Z,24.60
2018-09-23T12:34:05.553Z,24.60
2018-09-23T12:36:33.824Z,24.50
2018-09-23T12:39:02.110Z,24.40
2018-09-23T12:41:30.441Z,24.30
2018-09-23T12:43:59.472Z,24.30
2018-09-23T12:46:28.236Z,24.30
2018-09-23T12:48:56.535Z,24.30
2018-09-23T12:51:24.794Z,24.20
2018-09-23T12:53:53.429Z,24.20
2018-09-23T12:56:21.716Z,24.10
2018-09-23T12:58:50.268Z,24.10
2018-09-23T13:01:19.261Z,24.00
2018-09-23T13:03:47.560Z,24.00
2018-09-23T13:06:16.271Z,24.00
2018-09-23T13:08:44.490Z,24.00
2018-09-23T13:11:13.133Z,24.00
2018-09-23T13:13:41.391Z,24.00
2018-09-23T13:16:09.636Z,24.00
2018-09-23T13:18:38.080Z,24.00
2018-09-23T13:21:06.804Z,24.00
2018-09-23T13:23:35.848Z,24.00
2018-09-23T13:26:04.787Z,24.00
2018-09-23T13:28:33.356Z,24.10
2018-09-23T13:31:01.647Z,24.00
2018-09-23T13:33:30.515Z,24.00
2018-09-23T13:35:59.606Z,24.00
2018-09-23T13:38:28.588Z,24.00
2018-09-23T13:40:57.141Z,24.00
2018-09-23T13:43:25.670Z,24.00
2018-09-23T13:45:53.889Z,24.00
2018-09-23T13:48:22.443Z,24.00
2018-09-23T13:50:51.130Z,24.00
2018-09-23T13:53:19.577Z,24.00
2018-09-23T13:55:47.797Z,24.00
2018-09-23T13:58:16.407Z,24.00
2018-09-23T14:00:44.622Z,24.00
2018-09-23T14:03:13.887Z,24.00
2018-09-23T14:05:42.959Z,24.10
2018-09-23T14:08:11.461Z,24.10
2018-09-23T14:10:39.967Z,24.10
2018-09-23T14:13:08.227Z,24.20
2018-09-23T14:15:36.869Z,24.20
2018-09-23T14:18:06.159Z,24.30
2018-09-23T14:20:34.393Z,24.30
2018-09-23T14:23:02.650Z,24.40
2018-09-23T14:25:31.619Z,24.50
2018-09-23T14:28:00.157Z,24.50
2018-09-23T14:30:29.001Z,24.50
2018-09-23T14:32:57.290Z,24.70
2018-09-23T14:35:25.855Z,24.80
2018-09-23T14:37:54.637Z,24.80
2018-09-23T14:40:22.944Z,24.80
2018-09-23T14:42:51.584Z,24.90
2018-09-23T14:45:20.116Z,25.00
2018-09-23T14:47:48.678Z,24.90
2018-09-23T14:50:16.958Z,24.90
2018-09-23T14:52:45.239Z,24.80
2018-09-23T14:55:14.234Z,24.60
2018-09-23T14:57:42.419Z,24.60
2018-09-23T15:00:10.845Z,24.50
2018-09-23T15:02:38.994Z,24.40
2018-09-23T15:05:07.875Z,24.40
2018-09-23T15:07:36.115Z,24.50
2018-09-23T15:10:04.397Z,24.50
2018-09-23T15:12:32.657Z,24.40
2018-09-23T15:15:00.895Z,24.40
2018-09-23T15:17:29.179Z,24.40
2018-09-23T15:19:58.059Z,24.40
2018-09-23T15:22:26.715Z,24.30
2018-09-23T15:24:55.269Z,24.30
2018-09-23T15:27:23.800Z,24.20
2018-09-23T15:29:52.325Z,24.20
2018-09-23T15:32:20.791Z,24.20
2018-09-23T15:34:49.294Z,24.20
2018-09-23T15:39:52.923Z,24.20
2018-09-23T15:42:22.100Z,24.10
2018-09-23T15:44:50.612Z,24.10
2018-09-23T15:47:19.319Z,24.10
2018-09-23T15:49:47.875Z,24.10
2018-09-23T15:52:16.564Z,24.10
2018-09-23T15:54:51.596Z,24.10
2018-09-23T15:57:20.108Z,24.10
2018-09-23T15:59:48.434Z,24.10
2018-09-23T16:02:17.468Z,24.00
2018-09-23T16:04:46.200Z,24.10
2018-09-23T16:07:14.831Z,24.10
2018-09-23T16:09:43.867Z,24.10
2018-09-23T16:12:12.293Z,24.20
2018-09-23T16:14:41.014Z,24.10
2018-09-23T16:17:09.368Z,24.10
2018-09-23T16:19:37.723Z,24.10
2018-09-23T16:22:06.432Z,24.10
2018-09-23T16:24:34.744Z,24.10
2018-09-23T16:27:03.458Z,24.10
2018-09-23T16:29:31.805Z,24.10
2018-09-23T16:32:00.417Z,24.00
2018-09-23T16:34:29.417Z,24.00
2018-09-23T16:36:57.749Z,23.90
2018-09-23T16:39:26.397Z,23.80
2018-09-23T16:41:54.783Z,23.20
2018-09-23T16:44:23.709Z,20.70
2018-09-23T16:46:52.025Z,19.50
2018-09-23T16:49:20.363Z,18.90
2018-09-23T16:51:48.763Z,18.20
2018-09-23T16:54:17.452Z,18.00
2018-09-23T16:56:45.763Z,17.70
2018-09-23T16:59:14.299Z,17.30
2018-09-23T17:01:43.148Z,17.10
2018-09-23T17:04:11.532Z,17.40
2018-09-23T17:06:39.899Z,17.20
2018-09-23T17:09:09.121Z,17.40
2018-09-23T17:11:38.534Z,17.40
2018-09-23T17:14:07.126Z,17.40
2018-09-23T17:16:35.874Z,17.50
2018-09-23T17:19:04.527Z,17.50
2018-09-23T17:21:32.886Z,17.50
2018-09-23T17:24:01.634Z,17.60
2018-09-23T17:26:29.953Z,17.70
2018-09-23T17:28:58.693Z,17.60
2018-09-23T17:31:27.055Z,17.60
2018-09-23T17:33:55.362Z,17.60
2018-09-23T17:36:23.746Z,17.50
2018-09-23T17:38:52.104Z,17.60
2018-09-23T17:41:20.504Z,17.40
2018-09-23T17:43:48.869Z,17.50
2018-09-23T17:46:17.279Z,17.70
2018-09-23T17:48:45.605Z,17.40
2018-09-23T17:51:14.688Z,17.40
2018-09-23T17:53:43.035Z,17.50
2018-09-23T17:56:11.403Z,17.40
2018-09-23T17:58:39.869Z,17.40
2018-09-23T18:01:08.272Z,17.40
2018-09-23T18:03:36.609Z,17.20
2018-09-23T18:06:05.172Z,17.20
2018-09-23T18:08:33.862Z,17.30
2018-09-23T18:11:02.647Z,17.40
2018-09-23T18:13:31.015Z,17.40
2018-09-23T18:15:59.793Z,17.20
2018-09-23T18:18:28.486Z,17.00
2018-09-23T18:20:57.209Z,17.10
2018-09-23T18:23:25.568Z,17.00
2018-09-23T18:25:53.893Z,16.80
2018-09-23T18:28:22.300Z,16.50
2018-09-23T18:30:51.004Z,16.30
2018-09-23T18:33:19.925Z,16.50
2018-09-23T18:35:48.924Z,16.20
2018-09-23T18:38:17.283Z,16.30
2018-09-23T18:40:46.132Z,16.50
2018-09-23T18:43:14.558Z,16.60
2018-09-23T18:45:42.944Z,16.10
2018-09-23T18:48:11.297Z,16.10
2018-09-23T18:50:39.644Z,15.90
2018-09-23T18:53:13.479Z,15.80
2018-09-23T18:55:43.369Z,15.90
2018-09-23T18:58:11.682Z,15.80
2018-09-23T19:00:40.399Z,15.60
2018-09-23T19:03:09.721Z,15.50
2018-09-23T19:05:38.085Z,15.50
2018-09-23T19:08:07.580Z,15.50
2018-09-23T19:10:35.961Z,15.40
2018-09-23T19:13:10.023Z,15.20
2018-09-23T19:15:38.625Z,15.40
2018-09-23T19:18:07.351Z,15.30
2018-09-23T19:20:36.065Z,15.40
2018-09-23T19:23:12.875Z,15.20
2018-09-23T19:25:41.724Z,15.20
2018-09-23T19:28:10.324Z,15.00
2018-09-23T19:30:38.736Z,15.00
2018-09-23T19:33:07.160Z,14.90
2018-09-23T19:35:36.453Z,15.00
2018-09-23T19:38:04.873Z,15.00
2018-09-23T19:40:33.684Z,14.80
2018-09-23T19:43:02.146Z,14.80
2018-09-23T19:45:31.261Z,14.70
2018-09-23T19:47:59.645Z,14.80
2018-09-23T19:50:28.412Z,14.90
2018-09-23T19:52:57.038Z,14.60
2018-09-23T19:55:25.565Z,14.80
2018-09-23T19:57:53.877Z,14.70
2018-09-23T20:00:22.513Z,14.60
2018-09-23T20:02:51.230Z,14.50
2018-09-23T20:05:19.773Z,14.60
2018-09-23T20:07:48.507Z,14.50
2018-09-23T20:10:16.868Z,14.40
2018-09-23T20:12:45.921Z,14.40
2018-09-23T20:15:16.565Z,14.30
2018-09-23T20:17:46.180Z,14.40
2018-09-23T20:20:14.544Z,14.20
2018-09-23T20:22:43.263Z,14.10
2018-09-23T20:25:11.671Z,14.50
2018-09-23T20:27:39.994Z,14.50
2018-09-23T20:30:08.596Z,14.50
2018-09-23T20:32:37.334Z,14.50
2018-09-23T20:35:06.924Z,14.50
2018-09-23T20:37:36.342Z,14.40
2018-09-23T20:40:04.895Z,14.30
2018-09-23T20:42:33.217Z,14.60
2018-09-23T20:45:01.806Z,14.40
2018-09-23T20:47:30.608Z,14.30
2018-09-23T20:49:59.156Z,14.20
2018-09-23T20:52:28.302Z,14.10
2018-09-23T20:54:56.883Z,14.10
2018-09-23T20:57:25.472Z,14.00
2018-09-23T20:59:53.739Z,13.60
2018-09-23T21:02:22.087Z,13.70
2018-09-23T21:04:50.686Z,13.50
2018-09-23T21:07:19.004Z,13.60
2018-09-23T21:09:47.344Z,13.70
2018-09-23T21:12:15.644Z,13.60
2018-09-23T21:14:43.948Z,13.50
2018-09-23T21:17:12.537Z,13.40
2018-09-23T21:19:40.877Z,13.30
2018-09-23T21:22:10.174Z,13.20
2018-09-23T21:24:38.491Z,13.30
2018-09-23T21:27:07.208Z,13.50
2018-09-23T21:29:35.528Z,13.50
2018-09-23T21:32:04.287Z,13.60
2018-09-23T21:34:32.972Z,13.60
2018-09-23T21:37:01.660Z,13.30
2018-09-23T21:39:30.310Z,13.40
2018-09-23T21:41:58.989Z,13.20
2018-09-23T21:44:27.335Z,13.20
2018-09-23T21:46:56.027Z,13.40
2018-09-23T21:49:24.839Z,13.30
2018-09-23T21:51:53.157Z,13.50
2018-09-23T21:54:22.235Z,13.60
2018-09-23T21:56:50.769Z,13.60
2018-09-23T21:59:19.489Z,13.50
2018-09-23T22:01:47.786Z,13.30
2018-09-23T22:04:16.782Z,13.40
2018-09-23T22:06:45.119Z,13.50
2018-09-23T22:09:13.409Z,13.50
2018-09-23T22:11:42.076Z,13.50
2018-09-23T22:14:10.656Z,13.50
2018-09-23T22:16:39.021Z,13.50
2018-09-23T22:19:07.545Z,13.40
2018-09-23T22:21:35.858Z,13.50
2018-09-23T22:24:04.141Z,13.40
2018-09-23T22:26:32.461Z,13.30
2018-09-23T22:29:00.785Z,13.10
2018-09-23T22:31:29.381Z,13.00
2018-09-23T22:33:58.041Z,13.10
2018-09-23T22:36:26.739Z,13.00
2018-09-23T22:38:55.367Z,13.10
2018-09-23T22:41:24.123Z,13.10
2018-09-23T22:43:52.683Z,12.90
2018-09-23T22:46:21.310Z,12.80
2018-09-23T22:48:49.604Z,13.10
2018-09-23T22:51:18.932Z,13.20
2018-09-23T22:53:47.214Z,13.10
2018-09-23T22:56:16.155Z,13.20
2018-09-23T22:58:44.604Z,13.30
2018-09-23T23:01:12.959Z,13.30
2018-09-23T23:03:41.264Z,13.30
2018-09-23T23:06:09.668Z,13.10
2018-09-23T23:08:38.277Z,13.20
2018-09-23T23:11:06.568Z,13.30
2018-09-23T23:13:34.838Z,13.00
2018-09-23T23:16:03.790Z,12.90
2018-09-23T23:18:32.418Z,13.20
2018-09-23T23:21:00.680Z,13.00
2018-09-23T23:23:29.430Z,12.80
2018-09-23T23:25:58.107Z,12.90
2018-09-23T23:28:26.755Z,13.10
2018-09-23T23:30:55.113Z,13.30
2018-09-23T23:33:23.764Z,13.20
2018-09-23T23:35:52.087Z,12.90
2018-09-23T23:38:20.713Z,13.10
2018-09-23T23:40:49.323Z,12.80
2018-09-23T23:43:17.659Z,12.60
2018-09-23T23:45:45.954Z,12.70
2018-09-23T23:48:14.259Z,12.70
2018-09-23T23:50:42.575Z,12.70
2018-09-23T23:53:11.141Z,12.50
2018-09-23T23:55:39.433Z,12.50
2018-09-23T23:58:07.751Z,12.40
